Time;durP1;ratioP1;P1;durP2;ratioP2;P2;SDS_P1;SDS_P2;PMS_P1;PMS_P2;Temp;Humidity;BMP_temperature;BMP_pressure;BME280_temperature;BME280_humidity;BME280_pressure;Samples;Min_cycle;Max_cycle;Signal;HPM_P1;HPM_P2
2023/09/03 00:01:57;;;;;;;;;;;;;;;;;;4981348;28;20250;-89
2023/09/03 00:04:23;;;;;;;;;;;;;;;;;;4976603;28;19914;-89
2023/09/03 00:06:48;;;;;;;;;;;;;;;;;;4968735;28;20018;-89
2023/09/03 00:09:16;;;;;;;;;;;;;;;;;;4993322;28;19920;-90
2023/09/03 00:11:42;;;;;;;;;;;;;;;;;;4979745;28;20012;-89
2023/09/03 00:14:08;;;;;;;;;;;;;;;;;;4972690;28;20001;-89
2023/09/03 00:16:34;;;;;;;;;;;;;;;;;;4976418;28;19948;-89
2023/09/03 00:19:00;;;;;;;;;;;;;;;;;;4973529;28;19922;-89
2023/09/03 00:21:26;;;;;;;;;;;;;;;;;;4973681;28;20071;-89
2023/09/03 00:23:52;;;;;;;;;;;;;;;;;;4970999;28;20063;-89
2023/09/03 00:26:19;;;;;;;;;;;;;;;;;;4986570;28;19968;-89
2023/09/03 00:28:45;;;;;;;;;;;;;;;;;;4976607;28;19926;-89
2023/09/03 00:31:11;;;;;;;;;;;;;;;;;;4973171;28;19923;-89
2023/09/03 00:33:37;;;;;;;;;;;;;;;;;;4969538;28;20297;-88
2023/09/03 00:36:03;;;;;;;;;;;;;;;;;;4975810;28;19960;-88
2023/09/03 00:38:35;;;;;;;;;;;;;;;;;;4968023;28;20330;-88
2023/09/03 00:41:04;;;;;;;;;;;;;;;;;;4985158;28;19917;-88
2023/09/03 00:43:30;;;;;;;;;;;;;;;;;;4972127;28;20297;-88
2023/09/03 00:45:56;;;;;;;;;;;;;;;;;;4979856;28;19914;-88
2023/09/03 00:48:23;;;;;;;;;;;;;;;;;;4992226;28;19917;-88
2023/09/03 00:50:49;;;;;;;;;;;;;;;;;;4972447;28;19921;-88
2023/09/03 00:53:15;;;;;;;;;;;;;;;;;;4972270;28;19914;-88
2023/09/03 00:55:41;;;;;;;;;;;;;;;;;;4973869;28;20357;-89
2023/09/03 00:58:07;;;;;;;;;;;;;;;;;;4977263;28;19971;-88
2023/09/03 01:00:33;;;;;;;;;;;;;;;;;;4970263;28;19930;-88
2023/09/03 01:03:00;;;;;;;;;;;;;;;;;;4971942;28;19988;-88
2023/09/03 01:05:26;;;;;;;;;;;;;;;;;;4968015;28;19925;-89
2023/09/03 01:07:52;;;;;;;;;;;;;;;;;;4971305;28;20277;-88
2023/09/03 01:10:18;;;;;;;;;;;;;;;;;;4976328;28;19918;-89
2023/09/03 01:12:44;;;;;;;;;;;;;;;;;;4971467;28;19969;-89
2023/09/03 01:15:14;;;;;;;;;;;;;;;;;;4966794;28;20008;-89
2023/09/03 01:17:41;;;;;;;;;;;;;;;;;;4971125;28;19918;-88
2023/09/03 01:20:07;;;;;;;;;;;;;;;;;;4970114;28;19925;-88
2023/09/03 01:22:33;;;;;;;;;;;;;;;;;;4986583;28;19921;-88
2023/09/03 01:24:59;;;;;;;;;;;;;;;;;;4977069;28;20345;-89
2023/09/03 01:27:25;;;;;;;;;;;;;;;;;;4977338;28;19921;-88
2023/09/03 01:29:51;;;;;;;;;;;;;;;;;;4972508;28;19920;-88
2023/09/03 01:32:17;;;;;;;;;;;;;;;;;;4976101;28;20354;-88
2023/09/03 01:34:43;;;;;;;;;;;;;;;;;;4973778;28;19914;-89
2023/09/03 01:37:09;;;;;;;;;;;;;;;;;;4980884;28;19917;-89
2023/09/03 01:39:35;;;;;;;;;;;;;;;;;;4968273;28;19917;-88
2023/09/03 01:42:01;;;;;;;;;;;;;;;;;;4979279;28;19918;-89
2023/09/03 01:44:31;;;;;;;;;;;;;;;;;;4970257;28;19933;-89
2023/09/03 01:46:57;;;;;;;;;;;;;;;;;;4974030;28;19941;-88
2023/09/03 01:49:23;;;;;;;;;;;;;;;;;;4976780;28;20372;-90
2023/09/03 01:51:49;;;;;;;;;;;;;;;;;;4967639;28;19914;-89
2023/09/03 01:54:15;;;;;;;;;;;;;;;;;;4993536;28;19941;-89
2023/09/03 01:56:41;;;;;;;;;;;;;;;;;;4968313;28;20388;-89
2023/09/03 01:59:07;;;;;;;;;;;;;;;;;;4971578;28;19922;-89
2023/09/03 02:01:33;;;;;;;;;;;;;;;;;;4977827;28;19968;-90
2023/09/03 02:03:59;;;;;;;;;;;;;;;;;;4974804;28;20259;-89
2023/09/03 02:06:25;;;;;;;;;;;;;;;;;;4983176;28;19920;-89
2023/09/03 02:08:51;;;;;;;;;;;;;;;;;;4995992;28;20381;-89
2023/09/03 02:11:17;;;;;;;;;;;;;;;;;;4972604;28;19925;-89
2023/09/03 02:13:43;;;;;;;;;;;;;;;;;;4971101;28;19922;-90
2023/09/03 02:16:09;;;;;;;;;;;;;;;;;;4981050;28;19965;-89
2023/09/03 02:18:35;;;;;;;;;;;;;;;;;;4978133;28;19925;-90
2023/09/03 02:21:01;;;;;;;;;;;;;;;;;;4973502;28;20038;-89
2023/09/03 02:23:27;;;;;;;;;;;;;;;;;;4975055;28;20042;-89
2023/09/03 02:25:53;;;;;;;;;;;;;;;;;;4975333;28;19917;-89
2023/09/03 02:28:19;;;;;;;;;;;;;;;;;;4966867;28;19929;-89
2023/09/03 02:30:45;;;;;;;;;;;;;;;;;;4971901;28;19914;-90
2023/09/03 02:33:10;;;;;;;;;;;;;;;;;;4973813;28;20509;-90
2023/09/03 02:35:36;;;;;;;;;;;;;;;;;;4987611;28;19917;-89
2023/09/03 02:38:02;;;;;;;;;;;;;;;;;;4975886;28;19994;-90
2023/09/03 02:40:28;;;;;;;;;;;;;;;;;;4988113;28;20187;-89
2023/09/03 02:42:54;;;;;;;;;;;;;;;;;;4973002;28;19968;-89
2023/09/03 02:45:20;;;;;;;;;;;;;;;;;;4979372;28;19921;-93
2023/09/03 02:47:46;;;;;;;;;;;;;;;;;;4972301;28;19918;-92
2023/09/03 02:50:12;;;;;;;;;;;;;;;;;;4977195;28;20431;-93
2023/09/03 02:52:38;;;;;;;;;;;;;;;;;;4976839;28;19920;-93
2023/09/03 02:55:04;;;;;;;;;;;;;;;;;;4975687;28;19930;-90
2023/09/03 02:57:30;;;;;;;;;;;;;;;;;;4973171;28;19920;-89
2023/09/03 02:59:56;;;;;;;;;;;;;;;;;;4976806;28;19918;-89
2023/09/03 03:02:22;;;;;;;;;;;;;;;;;;4970821;28;19963;-89
2023/09/03 03:04:48;;;;;;;;;;;;;;;;;;4979204;28;19998;-89
2023/09/03 03:07:14;;;;;;;;;;;;;;;;;;4973902;28;19913;-89
2023/09/03 03:09:40;;;;;;;;;;;;;;;;;;4989054;28;19914;-89
2023/09/03 03:12:05;;;;;;;;;;;;;;;;;;4972664;28;19940;-89
2023/09/03 03:14:31;;;;;;;;;;;;;;;;;;4964188;28;19949;-89
2023/09/03 03:16:57;;;;;;;;;;;;;;;;;;4971394;28;19953;-89
2023/09/03 03:19:23;;;;;;;;;;;;;;;;;;4974313;28;19968;-89
2023/09/03 03:21:49;;;;;;;;;;;;;;;;;;4990397;28;20032;-89
2023/09/03 03:24:15;;;;;;;;;;;;;;;;;;4969090;28;19918;-89
2023/09/03 03:26:41;;;;;;;;;;;;;;;;;;4981626;28;19918;-89
2023/09/03 03:29:09;;;;;;;;;;;;;;;;;;4971399;28;20008;-89
2023/09/03 03:31:35;;;;;;;;;;;;;;;;;;4974028;28;19968;-89
2023/09/03 03:34:01;;;;;;;;;;;;;;;;;;4975810;28;20357;-89
2023/09/03 03:36:27;;;;;;;;;;;;;;;;;;4973714;28;19924;-89
2023/09/03 03:38:52;;;;;;;;;;;;;;;;;;4972183;28;19964;-89
2023/09/03 03:41:18;;;;;;;;;;;;;;;;;;4977426;28;19917;-90
2023/09/03 03:43:44;;;;;;;;;;;;;;;;;;4977639;28;20196;-89
2023/09/03 03:46:10;;;;;;;;;;;;;;;;;;4978854;28;19925;-89
2023/09/03 03:48:36;;;;;;;;;;;;;;;;;;4977013;28;20285;-90
2023/09/03 03:51:02;;;;;;;;;;;;;;;;;;4971173;28;19914;-89
2023/09/03 03:53:28;;;;;;;;;;;;;;;;;;4970473;28;19933;-90
2023/09/03 03:55:54;;;;;;;;;;;;;;;;;;4973951;28;19926;-93
2023/09/03 03:58:20;;;;;;;;;;;;;;;;;;4976725;28;19949;-94
2023/09/03 04:00:46;;;;;;;;;;;;;;;;;;4976499;28;19922;-94
2023/09/03 04:03:12;;;;;;;;;;;;;;;;;;4972187;28;19971;-95
2023/09/03 04:05:38;;;;;;;;;;;;;;;;;;4975180;28;19913;-89
2023/09/03 04:08:04;;;;;;;;;;;;;;;;;;4974778;28;19945;-89
2023/09/03 04:10:29;;;;;;;;;;;;;;;;;;4972850;28;19922;-89
2023/09/03 04:12:56;;;;;;;;;;;;;;;;;;4981410;28;19985;-89
2023/09/03 04:15:22;;;;;;;;;;;;;;;;;;4972441;28;20289;-90
2023/09/03 04:17:48;;;;;;;;;;;;;;;;;;4983829;28;19914;-89
2023/09/03 04:20:14;;;;;;;;;;;;;;;;;;4979388;28;20587;-89
2023/09/03 04:22:40;;;;;;;;;;;;;;;;;;4972745;28;20025;-90
2023/09/03 04:25:06;;;;;;;;;;;;;;;;;;4979680;28;20531;-90
2023/09/03 04:27:31;;;;;;;;;;;;;;;;;;4973722;28;19929;-90
2023/09/03 04:29:57;;;;;;;;;;;;;;;;;;4975023;28;19914;-90
2023/09/03 04:32:23;;;;;;;;;;;;;;;;;;4993216;28;19918;-90
2023/09/03 04:34:49;;;;;;;;;;;;;;;;;;4977363;28;19918;-90
2023/09/03 04:37:15;;;;;;;;;;;;;;;;;;4976231;28;19914;-89
2023/09/03 04:39:41;;;;;;;;;;;;;;;;;;4974937;28;19941;-90
2023/09/03 04:42:07;;;;;;;;;;;;;;;;;;4981813;28;19941;-90
2023/09/03 04:44:33;;;;;;;;;;;;;;;;;;4980032;28;19957;-90
2023/09/03 04:46:59;;;;;;;;;;;;;;;;;;4983357;28;19922;-89
2023/09/03 04:49:25;;;;;;;;;;;;;;;;;;4977509;28;19945;-90
2023/09/03 04:51:51;;;;;;;;;;;;;;;;;;4979526;28;19980;-90
2023/09/03 04:54:17;;;;;;;;;;;;;;;;;;4981452;28;19920;-90
2023/09/03 04:56:43;;;;;;;;;;;;;;;;;;4977482;28;19968;-90
2023/09/03 04:59:10;;;;;;;;;;;;;;;;;;4979103;28;19918;-89
2023/09/03 05:01:35;;;;;;;;;;;;;;;;;;4974138;28;19918;-90
2023/09/03 05:04:03;;;;;;;;;;;;;;;;;;4973981;28;19918;-89
2023/09/03 05:06:29;;;;;;;;;;;;;;;;;;4991082;28;19918;-90
2023/09/03 05:08:55;;;;;;;;;;;;;;;;;;4971802;28;20515;-89
2023/09/03 05:11:21;;;;;;;;;;;;;;;;;;4991461;28;19922;-89
2023/09/03 05:13:47;;;;;;;;;;;;;;;;;;4970679;28;19922;-89
2023/09/03 05:16:13;;;;;;;;;;;;;;;;;;4980412;28;19921;-88
2023/09/03 05:18:39;;;;;;;;;;;;;;;;;;4970646;28;19924;-89
2023/09/03 05:21:05;;;;;;;;;;;;;;;;;;4974872;28;20285;-88
2023/09/03 05:23:31;;;;;;;;;;;;;;;;;;4987578;28;19914;-88
2023/09/03 05:25:56;;;;;;;;;;;;;;;;;;4978950;28;20304;-88
2023/09/03 05:28:22;;;;;;;;;;;;;;;;;;4971735;28;19918;-88
2023/09/03 05:30:49;;;;;;;;;;;;;;;;;;4970960;28;20297;-89
2023/09/03 05:33:15;;;;;;;;;;;;;;;;;;4976496;28;19918;-89
2023/09/03 05:35:41;;;;;;;;;;;;;;;;;;4973690;28;19989;-89
2023/09/03 05:38:07;;;;;;;;;;;;;;;;;;4971838;28;19918;-89
2023/09/03 05:40:33;;;;;;;;;;;;;;;;;;4973570;28;19988;-88
2023/09/03 05:42:59;;;;;;;;;;;;;;;;;;4978080;28;19961;-89
2023/09/03 05:45:25;;;;;;;;;;;;;;;;;;4980465;28;19957;-88
2023/09/03 05:47:51;;;;;;;;;;;;;;;;;;4971553;28;20028;-89
2023/09/03 05:50:16;;;;;;;;;;;;;;;;;;4973304;28;19922;-88
2023/09/03 05:52:43;;;;;;;;;;;;;;;;;;4965169;28;20354;-87
2023/09/03 05:55:08;;;;;;;;;;;;;;;;;;4969529;28;19980;-89
2023/09/03 05:57:34;;;;;;;;;;;;;;;;;;4973841;28;20338;-89
2023/09/03 06:00:00;;;;;;;;;;;;;;;;;;4968552;28;19960;-89
2023/09/03 06:02:26;;;;;;;;;;;;;;;;;;4971221;28;19917;-89
2023/09/03 06:04:52;;;;;;;;;;;;;;;;;;4970864;28;20373;-88
2023/09/03 06:07:18;;;;;;;;;;;;;;;;;;4979338;28;20024;-89
2023/09/03 06:09:45;;;;;;;;;;;;;;;;;;4968994;28;19977;-88
2023/09/03 06:12:11;;;;;;;;;;;;;;;;;;4971971;28;20380;-88
2023/09/03 06:14:36;;;;;;;;;;;;;;;;;;4969212;28;19997;-87
2023/09/03 06:17:04;;;;;;;;;;;;;;;;;;4974142;28;19910;-88
2023/09/03 06:19:30;;;;;;;;;;;;;;;;;;4993577;28;19918;-89
2023/09/03 06:21:56;;;;;;;;;;;;;;;;;;4966381;28;19922;-88
2023/09/03 06:24:31;;;;;;;;;;;;;;;;;;4981792;28;22183;-90
2023/09/03 06:26:56;;;;;;;;;;;;;;;;;;4973275;28;19918;-89
2023/09/03 06:29:22;;;;;;;;;;;;;;;;;;4972293;28;19910;-89
2023/09/03 06:31:48;;;;;;;;;;;;;;;;;;4974798;28;20185;-88
2023/09/03 06:34:14;;;;;;;;;;;;;;;;;;4974632;28;19922;-91
2023/09/03 06:36:40;;;;;;;;;;;;;;;;;;4972530;28;19925;-90
2023/09/03 06:39:13;;;;;;;;;;;;;;;;;;4976542;28;19957;-90
2023/09/03 06:41:39;;;;;;;;;;;;;;;;;;4993727;28;19952;-90
2023/09/03 06:44:05;;;;;;;;;;;;;;;;;;4976287;28;20388;-90
2023/09/03 06:46:31;;;;;;;;;;;;;;;;;;4979927;28;19952;-90
2023/09/03 06:48:57;;;;;;;;;;;;;;;;;;4980911;28;19921;-90
2023/09/03 06:51:23;;;;;;;;;;;;;;;;;;4977757;28;19921;-90
2023/09/03 06:53:49;;;;;;;;;;;;;;;;;;4976313;28;20011;-90
2023/09/03 06:56:14;;;;;;;;;;;;;;;;;;4979150;28;20028;-90
2023/09/03 06:58:40;;;;;;;;;;;;;;;;;;4976498;28;20373;-91
2023/09/03 07:01:07;;;;;;;;;;;;;;;;;;4986162;28;19993;-90
2023/09/03 07:03:33;;;;;;;;;;;;;;;;;;4967175;28;20010;-90
2023/09/03 07:05:59;;;;;;;;;;;;;;;;;;4980157;28;20364;-90
2023/09/03 07:08:25;;;;;;;;;;;;;;;;;;4972931;28;19945;-90
2023/09/03 07:10:51;;;;;;;;;;;;;;;;;;4991303;28;19910;-90
2023/09/03 07:13:17;;;;;;;;;;;;;;;;;;5011092;28;19941;-90
2023/09/03 07:15:42;;;;;;;;;;;;;;;;;;4994889;28;19933;-90
2023/09/03 07:18:08;;;;;;;;;;;;;;;;;;5001085;28;19929;-91
2023/09/03 07:20:34;;;;;;;;;;;;;;;;;;4996935;28;19918;-91
2023/09/03 07:23:00;;;;;;;;;;;;;;;;;;4995969;28;20026;-90
2023/09/03 07:25:26;;;;;;;;;;;;;;;;;;4997828;28;19984;-91
2023/09/03 07:27:52;;;;;;;;;;;;;;;;;;4988484;28;19915;-89
2023/09/03 07:30:18;;;;;;;;;;;;;;;;;;4991170;28;19921;-90
2023/09/03 07:32:44;;;;;;;;;;;;;;;;;;4995317;28;19933;-91
2023/09/03 07:35:10;;;;;;;;;;;;;;;;;;4998425;28;19994;-91
2023/09/03 07:37:36;;;;;;;;;;;;;;;;;;5001031;28;19952;-91
2023/09/03 07:40:03;;;;;;;;;;;;;;;;;;5021330;28;19906;-91
2023/09/03 07:42:29;;;;;;;;;;;;;;;;;;4997931;28;19941;-91
2023/09/03 07:44:55;;;;;;;;;;;;;;;;;;4998441;28;19976;-92
2023/09/03 07:47:21;;;;;;;;;;;;;;;;;;4990395;28;19918;-94
2023/09/03 07:49:47;;;;;;;;;;;;;;;;;;4978731;28;19929;-93
2023/09/03 07:52:13;;;;;;;;;;;;;;;;;;4978350;28;19914;-95
2023/09/03 07:54:39;;;;;;;;;;;;;;;;;;4981723;28;20317;-91
2023/09/03 07:57:05;;;;;;;;;;;;;;;;;;5003218;28;19928;-95
2023/09/03 07:59:31;;;;;;;;;;;;;;;;;;5013645;28;19925;-91
2023/09/03 08:01:58;;;;;;;;;;;;;;;;;;5016207;28;19932;-91
2023/09/03 08:04:23;;;;;;;;;;;;;;;;;;5019748;28;20138;-91
2023/09/03 08:06:49;;;;;;;;;;;;;;;;;;5018520;28;19953;-91
2023/09/03 08:09:15;;;;;;;;;;;;;;;;;;5012276;28;19959;-92
2023/09/03 08:11:41;;;;;;;;;;;;;;;;;;5016484;28;19929;-92
2023/09/03 08:14:07;;;;;;;;;;;;;;;;;;5019065;28;19929;-92
2023/09/03 08:16:33;;;;;;;;;;;;;;;;;;5013431;28;19937;-91
2023/09/03 08:18:59;;;;;;;;;;;;;;;;;;5018742;28;19925;-92
2023/09/03 08:21:25;;;;;;;;;;;;;;;;;;5016417;28;19932;-91
2023/09/03 08:23:51;;;;;;;;;;;;;;;;;;5020267;28;21068;-92
2023/09/03 08:26:17;;;;;;;;;;;;;;;;;;5016272;28;19981;-93
2023/09/03 08:28:43;;;;;;;;;;;;;;;;;;5019506;28;19918;-91
2023/09/03 08:31:09;;;;;;;;;;;;;;;;;;5012888;28;19975;-94
2023/09/03 08:33:37;;;;;;;;;;;;;;;;;;5010852;28;19921;-91
2023/09/03 08:36:03;;;;;;;;;;;;;;;;;;5014716;28;19917;-93
2023/09/03 08:38:29;;;;;;;;;;;;;;;;;;4994443;28;19924;-94
2023/09/03 08:40:55;;;;;;;;;;;;;;;;;;4994184;28;19921;-95
2023/09/03 08:43:21;;;;;;;;;;;;;;;;;;4996036;28;19920;-95
2023/09/03 08:45:47;;;;;;;;;;;;;;;;;;4992677;28;20031;-91
2023/09/03 08:48:13;;;;;;;;;;;;;;;;;;4998110;28;20119;-91
2023/09/03 08:50:39;;;;;;;;;;;;;;;;;;4993574;28;19928;-91
2023/09/03 08:53:05;;;;;;;;;;;;;;;;;;5005312;28;19960;-91
2023/09/03 08:55:32;;;;;;;;;;;;;;;;;;4992923;28;19976;-91
2023/09/03 08:57:59;;;;;;;;;;;;;;;;;;4993797;28;19913;-89
2023/09/03 09:00:25;;;;;;;;;;;;;;;;;;4989625;28;19921;-91
2023/09/03 09:02:51;;;;;;;;;;;;;;;;;;4996764;28;19917;-90
2023/09/03 09:05:17;;;;;;;;;;;;;;;;;;4996091;28;19917;-91
2023/09/03 09:07:43;;;;;;;;;;;;;;;;;;5001021;28;19997;-91
2023/09/03 09:10:09;;;;;;;;;;;;;;;;;;4991688;28;19921;-91
2023/09/03 09:12:35;;;;;;;;;;;;;;;;;;4989561;28;19925;-93
2023/09/03 09:15:01;;;;;;;;;;;;;;;;;;4998458;28;20376;-91
2023/09/03 09:17:30;;;;;;;;;;;;;;;;;;4993728;28;20051;-92
2023/09/03 09:19:56;;;;;;;;;;;;;;;;;;4993696;28;20375;-92
2023/09/03 09:22:22;;;;;;;;;;;;;;;;;;4995593;28;19926;-91
2023/09/03 09:24:48;;;;;;;;;;;;;;;;;;4994986;28;20071;-91
2023/09/03 09:27:14;;;;;;;;;;;;;;;;;;4995409;28;20004;-89
2023/09/03 09:29:40;;;;;;;;;;;;;;;;;;5004944;28;19993;-89
2023/09/03 09:32:06;;;;;;;;;;;;;;;;;;4992138;28;19948;-89
2023/09/03 09:34:32;;;;;;;;;;;;;;;;;;5005158;28;19956;-89
2023/09/03 09:36:58;;;;;;;;;;;;;;;;;;4991651;28;19956;-88
2023/09/03 09:39:24;;;;;;;;;;;;;;;;;;5004209;28;19953;-91
2023/09/03 09:41:49;;;;;;;;;;;;;;;;;;5001006;28;20004;-90
2023/09/03 09:44:15;;;;;;;;;;;;;;;;;;4993236;28;19917;-90
2023/09/03 09:46:41;;;;;;;;;;;;;;;;;;4992763;28;19913;-90
2023/09/03 09:49:08;;;;;;;;;;;;;;;;;;4993504;28;20008;-90
2023/09/03 09:51:34;;;;;;;;;;;;;;;;;;4986203;28;19914;-90
2023/09/03 09:54:00;;;;;;;;;;;;;;;;;;4989611;28;19913;-91
2023/09/03 09:56:27;;;;;;;;;;;;;;;;;;4982427;28;20384;-90
2023/09/03 09:58:53;;;;;;;;;;;;;;;;;;4976359;28;19921;-90
2023/09/03 10:01:19;;;;;;;;;;;;;;;;;;4976453;28;19995;-90
2023/09/03 10:03:45;;;;;;;;;;;;;;;;;;4973242;28;20430;-89
2023/09/03 10:06:11;;;;;;;;;;;;;;;;;;4975306;28;20284;-88
2023/09/03 10:08:37;;;;;;;;;;;;;;;;;;4967258;28;20008;-89
2023/09/03 10:11:03;;;;;;;;;;;;;;;;;;4987739;28;19913;-89
2023/09/03 10:13:28;;;;;;;;;;;;;;;;;;4974002;28;19936;-89
2023/09/03 10:15:54;;;;;;;;;;;;;;;;;;4970999;28;19921;-89
2023/09/03 10:18:20;;;;;;;;;;;;;;;;;;4978300;28;19917;-89
2023/09/03 10:20:46;;;;;;;;;;;;;;;;;;4974800;28;19925;-88
2023/09/03 10:23:13;;;;;;;;;;;;;;;;;;4971194;28;19938;-90
2023/09/03 10:25:39;;;;;;;;;;;;;;;;;;4991089;28;21119;-89
2023/09/03 10:28:05;;;;;;;;;;;;;;;;;;4974204;28;20017;-88
2023/09/03 10:30:31;;;;;;;;;;;;;;;;;;4970007;28;19918;-89
2023/09/03 10:32:57;;;;;;;;;;;;;;;;;;4967218;28;19914;-88
2023/09/03 10:35:23;;;;;;;;;;;;;;;;;;4970537;28;20025;-88
2023/09/03 10:37:53;;;;;;;;;;;;;;;;;;4973882;28;19980;-88
2023/09/03 10:40:20;;;;;;;;;;;;;;;;;;4970305;28;20423;-87
2023/09/03 10:42:45;;;;;;;;;;;;;;;;;;4973054;28;19918;-90
2023/09/03 10:45:11;;;;;;;;;;;;;;;;;;4973919;28;19914;-89
2023/09/03 10:47:37;;;;;;;;;;;;;;;;;;4969987;28;19918;-89
2023/09/03 10:50:03;;;;;;;;;;;;;;;;;;4975057;28;19981;-88
2023/09/03 10:52:33;;;;;;;;;;;;;;;;;;4987792;28;19922;-89
2023/09/03 10:54:59;;;;;;;;;;;;;;;;;;4980120;28;19941;-90
2023/09/03 10:57:25;;;;;;;;;;;;;;;;;;4974136;28;19969;-89
2023/09/03 10:59:51;;;;;;;;;;;;;;;;;;4974898;28;19969;-89
2023/09/03 11:02:17;;;;;;;;;;;;;;;;;;4974664;28;20312;-89
2023/09/03 11:04:50;;;;;;;;;;;;;;;;;;4977654;28;20307;-90
2023/09/03 11:07:16;;;;;;;;;;;;;;;;;;4975376;28;20302;-90
2023/09/03 11:09:42;;;;;;;;;;;;;;;;;;4975497;28;19929;-90
2023/09/03 11:12:08;;;;;;;;;;;;;;;;;;4975438;28;19914;-90
2023/09/03 11:14:34;;;;;;;;;;;;;;;;;;4972021;28;19914;-89
2023/09/03 11:17:00;;;;;;;;;;;;;;;;;;4987070;28;19980;-91
2023/09/03 11:19:26;;;;;;;;;;;;;;;;;;4982364;28;19973;-91
2023/09/03 11:21:52;;;;;;;;;;;;;;;;;;4978319;28;19921;-90
2023/09/03 11:24:18;;;;;;;;;;;;;;;;;;4972476;28;20378;-90
2023/09/03 11:26:44;;;;;;;;;;;;;;;;;;4981814;28;19932;-90
2023/09/03 11:29:11;;;;;;;;;;;;;;;;;;4989212;28;20187;-90
2023/09/03 11:31:37;;;;;;;;;;;;;;;;;;4989161;28;19948;-89
2023/09/03 11:34:03;;;;;;;;;;;;;;;;;;5000020;28;19905;-90
2023/09/03 11:36:29;;;;;;;;;;;;;;;;;;4999218;28;19905;-90
2023/09/03 11:38:55;;;;;;;;;;;;;;;;;;4994337;28;19913;-90
2023/09/03 11:41:21;;;;;;;;;;;;;;;;;;4991609;28;19917;-89
2023/09/03 11:43:48;;;;;;;;;;;;;;;;;;4992591;28;20640;-89
2023/09/03 11:46:13;;;;;;;;;;;;;;;;;;4989406;28;20361;-89
2023/09/03 11:48:40;;;;;;;;;;;;;;;;;;4992778;28;19917;-89
2023/09/03 11:51:06;;;;;;;;;;;;;;;;;;4988538;28;19954;-89
2023/09/03 11:53:32;;;;;;;;;;;;;;;;;;5002591;28;19924;-89
2023/09/03 11:56:01;;;;;;;;;;;;;;;;;;4991293;28;19921;-88
2023/09/03 11:58:27;;;;;;;;;;;;;;;;;;4971934;28;19972;-89
2023/09/03 12:00:53;;;;;;;;;;;;;;;;;;4978218;28;19922;-88
2023/09/03 12:03:19;;;;;;;;;;;;;;;;;;4979363;28;20269;-88
2023/09/03 12:05:45;;;;;;;;;;;;;;;;;;4978248;28;19914;-88
2023/09/03 12:08:20;;;;;;;;;;;;;;;;;;4979415;28;19920;-89
2023/09/03 12:10:46;;;;;;;;;;;;;;;;;;4982587;28;19914;-89
2023/09/03 12:13:12;;;;;;;;;;;;;;;;;;4978392;28;19937;-88
2023/09/03 12:15:38;;;;;;;;;;;;;;;;;;4977423;28;19913;-90
2023/09/03 12:18:04;;;;;;;;;;;;;;;;;;4974683;28;20377;-89
2023/09/03 12:20:30;;;;;;;;;;;;;;;;;;4983446;28;19928;-89
2023/09/03 12:22:55;;;;;;;;;;;;;;;;;;4979545;28;19918;-89
2023/09/03 12:25:21;;;;;;;;;;;;;;;;;;4974760;28;20046;-90
2023/09/03 12:27:47;;;;;;;;;;;;;;;;;;4987159;28;20001;-90
2023/09/03 12:30:16;;;;;;;;;;;;;;;;;;4990564;28;19970;-90
2023/09/03 12:32:42;;;;;;;;;;;;;;;;;;4997999;28;19924;-90
2023/09/03 12:35:08;;;;;;;;;;;;;;;;;;5001808;28;19933;-90
2023/09/03 12:37:40;;;;;;;;;;;;;;;;;;5011064;28;19921;-90
2023/09/03 12:40:07;;;;;;;;;;;;;;;;;;4993561;28;19925;-89
2023/09/03 12:42:33;;;;;;;;;;;;;;;;;;4990902;28;19942;-88
2023/09/03 12:44:58;;;;;;;;;;;;;;;;;;5003109;28;19926;-87
2023/09/03 12:47:24;;;;;;;;;;;;;;;;;;4993411;28;19905;-90
2023/09/03 12:49:51;;;;;;;;;;;;;;;;;;5006023;28;19925;-90
2023/09/03 12:52:17;;;;;;;;;;;;;;;;;;4999129;28;19925;-90
2023/09/03 12:54:43;;;;;;;;;;;;;;;;;;4996768;28;19913;-89
2023/09/03 12:57:09;;;;;;;;;;;;;;;;;;4998405;28;19940;-89
2023/09/03 12:59:35;;;;;;;;;;;;;;;;;;4992060;28;19914;-90
2023/09/03 13:02:01;;;;;;;;;;;;;;;;;;4994671;28;19918;-88
2023/09/03 13:04:27;;;;;;;;;;;;;;;;;;4991442;28;19952;-89
2023/09/03 13:06:52;;;;;;;;;;;;;;;;;;4997800;28;19901;-89
2023/09/03 13:09:18;;;;;;;;;;;;;;;;;;4994392;28;19921;-89
2023/09/03 13:11:44;;;;;;;;;;;;;;;;;;4990264;28;19941;-90
2023/09/03 13:14:10;;;;;;;;;;;;;;;;;;4990719;28;19999;-90
2023/09/03 13:16:36;;;;;;;;;;;;;;;;;;4992552;28;19922;-91
2023/09/03 13:19:02;;;;;;;;;;;;;;;;;;4994765;28;20027;-90
2023/09/03 13:21:33;;;;;;;;;;;;;;;;;;4993489;28;20013;-89
2023/09/03 13:23:59;;;;;;;;;;;;;;;;;;4994607;28;19953;-90
2023/09/03 13:26:25;;;;;;;;;;;;;;;;;;4983483;28;19918;-89
2023/09/03 13:28:51;;;;;;;;;;;;;;;;;;4999257;28;19977;-87
2023/09/03 13:31:21;;;;;;;;;;;;;;;;;;4980050;28;20349;-86
2023/09/03 13:33:47;;;;;;;;;;;;;;;;;;4983281;28;19937;-87
2023/09/03 13:36:15;;;;;;;;;;;;;;;;;;4975221;28;19918;-86
2023/09/03 13:38:41;;;;;;;;;;;;;;;;;;4981781;28;19941;-87
2023/09/03 13:41:07;;;;;;;;;;;;;;;;;;4971556;28;19918;-88
2023/09/03 13:43:33;;;;;;;;;;;;;;;;;;4968655;28;19921;-89
2023/09/03 13:45:59;;;;;;;;;;;;;;;;;;4997426;28;20005;-88
2023/09/03 13:48:28;;;;;;;;;;;;;;;;;;4971442;28;19996;-88
2023/09/03 13:50:57;;;;;;;;;;;;;;;;;;4972233;28;20038;-89
2023/09/03 13:53:23;;;;;;;;;;;;;;;;;;4993360;28;20265;-88
2023/09/03 13:55:49;;;;;;;;;;;;;;;;;;4975315;28;20874;-87
2023/09/03 13:58:14;;;;;;;;;;;;;;;;;;4989033;28;20347;-88
2023/09/03 14:00:40;;;;;;;;;;;;;;;;;;4988428;28;19913;-89
2023/09/03 14:03:06;;;;;;;;;;;;;;;;;;4989906;28;19918;-89
2023/09/03 14:05:32;;;;;;;;;;;;;;;;;;5007037;28;19929;-88
2023/09/03 14:07:58;;;;;;;;;;;;;;;;;;5004342;28;19920;-90
2023/09/03 14:10:24;;;;;;;;;;;;;;;;;;5012330;28;19917;-89
2023/09/03 14:12:53;;;;;;;;;;;;;;;;;;5000203;28;19914;-89
2023/09/03 14:15:19;;;;;;;;;;;;;;;;;;4997705;28;19921;-89
2023/09/03 14:17:45;;;;;;;;;;;;;;;;;;5000518;28;20143;-88
2023/09/03 14:20:11;;;;;;;;;;;;;;;;;;4996380;28;19952;-88
2023/09/03 14:22:42;;;;;;;;;;;;;;;;;;4998870;28;19923;-88
2023/09/03 14:25:08;;;;;;;;;;;;;;;;;;5017628;28;20514;-88
2023/09/03 14:27:34;;;;;;;;;;;;;;;;;;4991077;28;19957;-89
2023/09/03 14:29:59;;;;;;;;;;;;;;;;;;4997257;28;19984;-89
2023/09/03 14:32:25;;;;;;;;;;;;;;;;;;5012000;28;20399;-89
2023/09/03 14:34:52;;;;;;;;;;;;;;;;;;4996936;28;19948;-91
2023/09/03 14:37:18;;;;;;;;;;;;;;;;;;5011753;28;20327;-92
2023/09/03 14:39:44;;;;;;;;;;;;;;;;;;5011682;28;20297;-91
2023/09/03 14:42:10;;;;;;;;;;;;;;;;;;5015093;28;19976;-94
2023/09/03 14:44:36;;;;;;;;;;;;;;;;;;4998314;28;19914;-90
2023/09/03 14:47:02;;;;;;;;;;;;;;;;;;4997811;28;19924;-89
2023/09/03 14:49:28;;;;;;;;;;;;;;;;;;4993831;28;19922;-89
2023/09/03 14:51:54;;;;;;;;;;;;;;;;;;4999702;28;19917;-89
2023/09/03 14:54:20;;;;;;;;;;;;;;;;;;4996433;28;20029;-90
2023/09/03 14:56:49;;;;;;;;;;;;;;;;;;4996292;28;19929;-89
2023/09/03 14:59:14;;;;;;;;;;;;;;;;;;4994596;28;20440;-89
2023/09/03 15:01:40;;;;;;;;;;;;;;;;;;4991291;28;19975;-89
2023/09/03 15:04:06;;;;;;;;;;;;;;;;;;4986281;28;19922;-89
2023/09/03 15:06:32;;;;;;;;;;;;;;;;;;4991196;28;19914;-89
2023/09/03 15:08:58;;;;;;;;;;;;;;;;;;4988987;28;19914;-90
2023/09/03 15:11:26;;;;;;;;;;;;;;;;;;4988725;28;19921;-89
2023/09/03 15:13:55;;;;;;;;;;;;;;;;;;4992179;28;19913;-89
2023/09/03 15:16:21;;;;;;;;;;;;;;;;;;4993617;28;20007;-89
2023/09/03 15:18:47;;;;;;;;;;;;;;;;;;4996934;28;19917;-89
2023/09/03 15:21:13;;;;;;;;;;;;;;;;;;4995757;28;19968;-89
2023/09/03 15:23:39;;;;;;;;;;;;;;;;;;4986176;28;20266;-90
2023/09/03 15:26:05;;;;;;;;;;;;;;;;;;5007750;28;19949;-89
2023/09/03 15:28:31;;;;;;;;;;;;;;;;;;4991432;28;19980;-89
2023/09/03 15:30:57;;;;;;;;;;;;;;;;;;4996825;28;19920;-89
2023/09/03 15:33:23;;;;;;;;;;;;;;;;;;4993912;28;20393;-89
2023/09/03 15:35:49;;;;;;;;;;;;;;;;;;4995271;28;19917;-90
2023/09/03 15:38:15;;;;;;;;;;;;;;;;;;4995704;28;19925;-89
2023/09/03 15:40:41;;;;;;;;;;;;;;;;;;4999868;28;20280;-89
2023/09/03 15:43:10;;;;;;;;;;;;;;;;;;4997475;28;19918;-90
2023/09/03 15:45:36;;;;;;;;;;;;;;;;;;5006380;28;20286;-89
2023/09/03 15:48:02;;;;;;;;;;;;;;;;;;4997856;28;20271;-90
2023/09/03 15:50:28;;;;;;;;;;;;;;;;;;4994573;28;19917;-89
2023/09/03 15:52:54;;;;;;;;;;;;;;;;;;4988887;28;19917;-89
2023/09/03 15:55:20;;;;;;;;;;;;;;;;;;4995816;28;19921;-90
2023/09/03 15:57:46;;;;;;;;;;;;;;;;;;5009682;28;19932;-89
2023/09/03 16:00:13;;;;;;;;;;;;;;;;;;4986819;28;19917;-89
2023/09/03 16:02:39;;;;;;;;;;;;;;;;;;4995450;28;19921;-89
2023/09/03 16:05:05;;;;;;;;;;;;;;;;;;4996981;28;21147;-89
2023/09/03 16:07:31;;;;;;;;;;;;;;;;;;4989248;28;19922;-89
2023/09/03 16:09:57;;;;;;;;;;;;;;;;;;4997747;28;19993;-88
2023/09/03 16:12:22;;;;;;;;;;;;;;;;;;4991519;28;19921;-88
2023/09/03 16:14:48;;;;;;;;;;;;;;;;;;4994720;28;19913;-88
2023/09/03 16:17:14;;;;;;;;;;;;;;;;;;4998519;28;19976;-89
2023/09/03 16:19:40;;;;;;;;;;;;;;;;;;4998402;28;20015;-88
2023/09/03 16:22:06;;;;;;;;;;;;;;;;;;5008025;28;19922;-88
2023/09/03 16:24:32;;;;;;;;;;;;;;;;;;5015731;28;19921;-88
2023/09/03 16:26:58;;;;;;;;;;;;;;;;;;5020339;28;19974;-89
2023/09/03 16:29:24;;;;;;;;;;;;;;;;;;4994905;28;21362;-88
2023/09/03 16:31:50;;;;;;;;;;;;;;;;;;5001922;28;19995;-88
2023/09/03 16:34:16;;;;;;;;;;;;;;;;;;5010570;28;19910;-89
2023/09/03 16:36:44;;;;;;;;;;;;;;;;;;4987932;28;20024;-89
2023/09/03 16:39:16;;;;;;;;;;;;;;;;;;4989056;28;19918;-88